Time;durP1;ratioP1;P1;durP2;ratioP2;P2;SDS_P1;SDS_P2;PMS_P1;PMS_P2;Temp;Humidity;BMP_temperature;BMP_pressure;BME280_temperature;BME280_humidity;BME280_pressure;Samples;Min_cycle;Max_cycle;Signal;HPM_P1;HPM_P2
2022/01/11 00:00:21;;;;;;;87.70;40.83;;;3.30;99.90;;;;;;2114371;28;20419;-73
2022/01/11 00:01:22;;;;;;;95.03;42.03;;;3.40;99.90;;;;;;2108958;28;20027;-73
2022/01/11 00:02:23;;;;;;;91.82;43.00;;;3.40;99.90;;;;;;2114157;28;20110;-72
2022/01/11 00:03:24;;;;;;;90.05;42.08;;;3.30;99.90;;;;;;2109473;28;20030;-74
2022/01/11 00:04:29;;;;;;;92.35;42.63;;;3.40;99.90;;;;;;2113392;28;20058;-73
2022/01/11 00:06:42;;;;;;;91.43;41.70;;;3.40;99.90;;;;;;2112133;28;20052;-73
2022/01/11 00:07:44;;;;;;;91.00;41.42;;;3.40;99.90;;;;;;2111446;28;20035;-74
2022/01/11 00:08:45;;;;;;;89.82;41.85;;;3.40;99.90;;;;;;2110310;28;20020;-73
2022/01/11 00:09:49;;;;;;;91.78;42.53;;;3.40;99.90;;;;;;2119858;27;20096;-74
2022/01/11 00:10:53;;;;;;;88.47;42.13;;;3.40;99.90;;;;;;2117479;27;20031;-73
2022/01/11 00:11:54;;;;;;;93.28;42.65;;;3.40;99.90;;;;;;2112155;28;20103;-72
2022/01/11 00:13:01;;;;;;;95.22;43.05;;;3.40;99.90;;;;;;2108591;28;20124;-72
2022/01/11 00:14:02;;;;;;;92.45;42.47;;;3.30;99.90;;;;;;2113811;28;20080;-72
2022/01/11 00:15:03;;;;;;;89.20;42.92;;;3.30;99.90;;;;;;2108752;28;20489;-72
2022/01/11 00:16:05;;;;;;;96.75;44.60;;;3.30;99.90;;;;;;2114327;28;20019;-71
2022/01/11 00:17:07;;;;;;;92.88;43.30;;;3.30;99.90;;;;;;2108688;28;20692;-72
2022/01/11 00:18:08;;;;;;;93.82;43.25;;;3.30;99.90;;;;;;2113211;28;20028;-72
2022/01/11 00:19:09;;;;;;;97.93;45.22;;;3.30;99.90;;;;;;2112315;28;20123;-73
2022/01/11 00:20:13;;;;;;;102.40;46.45;;;3.30;99.90;;;;;;2113656;28;20700;-73
2022/01/11 00:21:13;;;;;;;102.10;46.80;;;3.30;99.90;;;;;;2113591;28;20043;-74
2022/01/11 00:22:18;;;;;;;99.47;46.85;;;3.30;99.90;;;;;;2113207;28;20058;-73
2022/01/11 00:24:33;;;;;;;106.93;48.30;;;3.30;99.90;;;;;;2113614;28;20039;-73
2022/01/11 00:25:41;;;;;;;118.47;51.88;;;3.20;99.90;;;;;;2113319;28;20039;-73
2022/01/11 00:26:42;;;;;;;114.15;49.63;;;3.20;99.90;;;;;;2113539;28;20514;-72
2022/01/11 00:27:42;;;;;;;104.53;49.38;;;3.20;99.90;;;;;;2104342;28;20157;-72
2022/01/11 00:28:43;;;;;;;114.22;51.42;;;3.20;99.90;;;;;;2095563;28;20028;-73
2022/01/11 00:30:01;;;;;;;113.60;50.10;;;3.20;99.90;;;;;;2112699;28;20434;-73
2022/01/11 00:31:05;;;;;;;107.18;48.28;;;3.10;99.90;;;;;;2112654;28;20031;-73
2022/01/11 00:32:11;;;;;;;111.90;49.20;;;3.10;99.90;;;;;;2096708;28;20025;-73
2022/01/11 00:33:17;;;;;;;108.40;49.50;;;3.10;99.90;;;;;;2112736;28;20015;-72
2022/01/11 00:34:20;;;;;;;106.88;48.80;;;3.10;99.90;;;;;;2113006;28;20027;-73
2022/01/11 00:35:28;;;;;;;113.75;51.50;;;3.10;99.90;;;;;;2096097;28;20060;-73
2022/01/11 00:36:40;;;;;;;104.63;48.00;;;3.10;99.90;;;;;;2097073;28;20024;-72
2022/01/11 00:37:41;;;;;;;107.47;47.95;;;3.10;99.90;;;;;;2103069;28;20170;-72
2022/01/11 00:38:42;;;;;;;104.82;48.92;;;3.10;99.90;;;;;;2103823;28;20036;-72
2022/01/11 00:39:45;;;;;;;112.88;50.22;;;3.10;99.90;;;;;;2112568;28;20476;-73
2022/01/11 00:40:50;;;;;;;110.75;49.70;;;3.10;99.90;;;;;;2104552;28;20128;-73
2022/01/11 00:41:51;;;;;;;112.82;49.75;;;3.00;99.90;;;;;;2106046;28;20031;-74
2022/01/11 00:42:52;;;;;;;111.78;49.95;;;3.00;99.90;;;;;;2112771;28;20050;-73
2022/01/11 00:43:53;;;;;;;120.18;52.40;;;3.00;99.90;;;;;;2121174;28;20039;-73
2022/01/11 00:44:53;;;;;;;118.85;52.63;;;3.00;99.90;;;;;;2112659;28;20028;-72
2022/01/11 00:45:56;;;;;;;116.90;52.17;;;3.00;99.90;;;;;;2112747;28;20110;-72
2022/01/11 00:46:57;;;;;;;121.82;52.78;;;3.00;99.90;;;;;;2104654;28;20070;-72
2022/01/11 00:47:58;;;;;;;119.82;53.10;;;3.00;99.90;;;;;;2104336;28;20028;-72
2022/01/11 00:48:58;;;;;;;118.85;52.17;;;3.00;99.90;;;;;;2103309;28;20051;-71
2022/01/11 00:49:59;;;;;;;121.50;52.95;;;3.00;99.90;;;;;;2104263;28;20020;-72
2022/01/11 00:51:00;;;;;;;118.35;51.97;;;3.00;99.90;;;;;;2104339;28;20032;-73
2022/01/11 00:52:02;;;;;;;117.60;51.20;;;3.00;99.90;;;;;;2104162;28;20081;-73
2022/01/11 00:53:04;;;;;;;119.47;51.53;;;3.00;99.90;;;;;;2096088;28;20058;-72
2022/01/11 00:54:05;;;;;;;109.95;50.15;;;2.90;99.90;;;;;;2112711;28;20033;-71
2022/01/11 00:55:06;;;;;;;113.43;50.80;;;2.90;99.90;;;;;;2112617;28;20020;-71
2022/01/11 00:56:07;;;;;;;110.10;50.05;;;2.90;99.90;;;;;;2095846;28;20025;-72
2022/01/11 00:57:07;;;;;;;109.35;48.75;;;2.90;99.90;;;;;;2095898;28;20659;-72
2022/01/11 00:58:08;;;;;;;113.15;51.20;;;2.80;99.90;;;;;;2104388;28;20075;-72
2022/01/11 00:59:09;;;;;;;112.43;50.33;;;2.80;99.90;;;;;;2103924;28;20502;-71
2022/01/11 01:00:11;;;;;;;110.78;49.33;;;2.80;99.90;;;;;;2096093;28;20103;-73
2022/01/11 01:01:12;;;;;;;108.60;49.58;;;2.80;99.90;;;;;;2112691;28;20024;-72
2022/01/11 01:02:13;;;;;;;113.70;50.97;;;2.70;99.90;;;;;;2112621;28;20560;-73
2022/01/11 01:03:14;;;;;;;107.72;49.25;;;2.80;99.90;;;;;;2104036;28;20024;-73
2022/01/11 01:04:14;;;;;;;109.43;48.95;;;2.70;99.90;;;;;;2112767;28;20092;-72
2022/01/11 01:05:17;;;;;;;106.47;47.60;;;2.70;99.90;;;;;;2102181;28;20108;-73
2022/01/11 01:06:21;;;;;;;105.97;48.67;;;2.70;99.90;;;;;;2091276;28;20055;-73
2022/01/11 01:07:21;;;;;;;108.88;48.85;;;2.70;99.90;;;;;;2104330;28;20028;-73
2022/01/11 01:08:22;;;;;;;103.32;48.17;;;2.70;99.90;;;;;;2104294;28;20456;-73
2022/01/11 01:09:26;;;;;;;99.47;47.28;;;2.60;99.90;;;;;;2112162;28;20028;-73
2022/01/11 01:10:35;;;;;;;101.43;47.65;;;2.60;99.90;;;;;;2112544;28;20028;-73
2022/01/11 01:11:37;;;;;;;101.32;46.70;;;2.50;99.90;;;;;;2096889;28;20028;-71
2022/01/11 01:12:37;;;;;;;101.90;47.00;;;2.50;99.90;;;;;;2096023;28;20408;-72
2022/01/11 01:13:38;;;;;;;102.50;47.33;;;2.50;99.90;;;;;;2096137;28;20396;-73
2022/01/11 01:14:42;;;;;;;94.75;45.97;;;2.50;99.90;;;;;;2096503;28;20075;-72
2022/01/11 01:15:47;;;;;;;101.88;47.17;;;2.50;99.90;;;;;;2102359;28;20108;-74
2022/01/11 01:16:55;;;;;;;99.43;45.72;;;2.50;99.90;;;;;;2105942;28;20020;-72
2022/01/11 01:18:00;;;;;;;97.63;43.90;;;2.50;99.90;;;;;;2105734;28;20094;-73
2022/01/11 01:19:01;;;;;;;101.80;47.35;;;2.40;99.90;;;;;;2112268;28;20012;-73
2022/01/11 01:20:03;;;;;;;94.57;45.70;;;2.30;99.90;;;;;;2113620;28;20128;-73
2022/01/11 01:21:04;;;;;;;93.32;44.80;;;2.30;99.90;;;;;;2105583;28;20552;-72
2022/01/11 01:22:05;;;;;;;91.72;45.03;;;2.30;99.90;;;;;;2097149;28;20115;-72
2022/01/11 01:23:06;;;;;;;96.10;46.03;;;2.30;99.90;;;;;;2105557;28;20044;-72
2022/01/11 01:24:09;;;;;;;99.43;46.78;;;2.30;99.90;;;;;;2105794;28;20495;-72
2022/01/11 01:25:10;;;;;;;98.05;45.75;;;2.20;99.90;;;;;;2114016;28;20031;-72
2022/01/11 01:26:11;;;;;;;97.53;45.88;;;2.20;99.90;;;;;;2105857;28;20032;-72
2022/01/11 01:27:12;;;;;;;95.35;44.78;;;2.20;99.90;;;;;;2105807;28;20507;-73
2022/01/11 01:28:14;;;;;;;101.50;46.00;;;2.20;99.90;;;;;;2107165;28;20034;-72
2022/01/11 01:29:14;;;;;;;96.55;46.00;;;2.20;99.90;;;;;;2113478;28;20028;-72
2022/01/11 01:30:17;;;;;;;100.93;47.45;;;2.20;99.90;;;;;;2114021;28;20494;-72
2022/01/11 01:31:18;;;;;;;102.03;47.05;;;2.20;99.90;;;;;;2105407;28;20186;-73
2022/01/11 01:32:19;;;;;;;103.30;47.17;;;2.20;99.90;;;;;;2096958;28;20036;-73
2022/01/11 01:33:20;;;;;;;95.22;44.95;;;2.20;99.90;;;;;;2099429;28;20029;-72
2022/01/11 01:34:23;;;;;;;96.75;46.28;;;2.20;99.90;;;;;;2114216;28;20027;-72
2022/01/11 01:35:28;;;;;;;94.30;44.90;;;2.20;99.90;;;;;;2105634;28;20049;-73
2022/01/11 01:36:29;;;;;;;99.38;47.08;;;2.20;99.90;;;;;;2114005;28;20480;-73
2022/01/11 01:37:30;;;;;;;97.40;45.80;;;2.20;99.90;;;;;;2105636;28;20104;-72
2022/01/11 01:38:32;;;;;;;95.63;45.15;;;2.20;99.90;;;;;;2097331;28;20033;-73
2022/01/11 01:39:33;;;;;;;93.00;44.13;;;2.10;99.90;;;;;;2097165;28;20504;-72
2022/01/11 01:40:43;;;;;;;95.38;45.65;;;2.10;99.90;;;;;;2113888;28;20047;-71
2022/01/11 01:41:46;;;;;;;100.45;45.70;;;2.10;99.90;;;;;;2105363;28;20391;-72
2022/01/11 01:42:48;;;;;;;93.90;44.83;;;2.10;99.90;;;;;;2106010;28;20031;-72
2022/01/11 01:43:52;;;;;;;96.47;44.55;;;2.00;99.90;;;;;;2114727;28;20149;-72
2022/01/11 01:44:52;;;;;;;95.47;44.58;;;2.00;99.90;;;;;;2105644;28;20028;-72
2022/01/11 01:45:55;;;;;;;94.00;43.58;;;2.00;99.90;;;;;;2105361;28;20435;-71
2022/01/11 01:46:56;;;;;;;93.65;43.53;;;2.00;99.90;;;;;;2113912;28;20020;-72
2022/01/11 01:47:58;;;;;;;97.82;45.45;;;2.00;99.90;;;;;;2105122;28;20070;-71
2022/01/11 01:49:00;;;;;;;98.35;46.83;;;2.00;99.90;;;;;;2096846;28;20021;-72
2022/01/11 01:50:03;;;;;;;98.30;46.45;;;2.00;99.90;;;;;;2105479;28;20576;-71
2022/01/11 01:51:07;;;;;;;97.47;45.80;;;2.10;99.90;;;;;;2105526;28;20028;-72
2022/01/11 01:52:08;;;;;;;95.07;46.28;;;2.10;99.90;;;;;;2113670;28;20031;-72
2022/01/11 01:53:12;;;;;;;95.82;45.17;;;2.10;99.90;;;;;;2097132;28;20599;-72
2022/01/11 01:54:14;;;;;;;96.25;46.33;;;2.10;99.90;;;;;;2098999;28;20459;-71
2022/01/11 01:55:14;;;;;;;102.68;46.60;;;2.10;99.90;;;;;;2105562;28;20055;-72
2022/01/11 01:56:19;;;;;;;99.25;46.25;;;2.00;99.90;;;;;;2105490;28;20078;-72
2022/01/11 01:57:20;;;;;;;96.57;45.88;;;2.00;99.90;;;;;;2113819;28;20130;-73
2022/01/11 01:58:21;;;;;;;101.10;47.17;;;2.00;99.90;;;;;;2105516;28;20017;-73
2022/01/11 01:59:22;;;;;;;101.43;47.05;;;2.00;99.90;;;;;;2104607;28;20032;-71
2022/01/11 02:00:24;;;;;;;100.55;47.20;;;2.00;99.90;;;;;;2097154;28;20032;-72
2022/01/11 02:01:26;;;;;;;99.28;47.35;;;2.00;99.90;;;;;;2097859;28;20078;-73
2022/01/11 02:02:27;;;;;;;96.93;46.08;;;2.00;99.90;;;;;;2114833;28;20050;-73
2022/01/11 02:03:30;;;;;;;96.70;47.10;;;2.00;99.90;;;;;;2114548;28;20035;-73
2022/01/11 02:04:30;;;;;;;100.13;46.33;;;2.00;99.90;;;;;;2105834;28;20027;-73
2022/01/11 02:05:31;;;;;;;99.00;47.13;;;2.00;99.90;;;;;;2113755;28;20027;-72
2022/01/11 02:06:32;;;;;;;94.72;45.63;;;2.00;99.90;;;;;;2114538;28;20027;-72
2022/01/11 02:07:34;;;;;;;98.47;45.83;;;2.00;99.90;;;;;;2114339;28;20062;-72
2022/01/11 02:08:35;;;;;;;96.53;45.83;;;2.00;99.90;;;;;;2113591;28;20047;-72
2022/01/11 02:09:36;;;;;;;93.53;44.70;;;2.00;99.90;;;;;;2113714;28;20057;-72
2022/01/11 02:10:37;;;;;;;95.63;45.30;;;2.00;99.90;;;;;;2113848;28;20020;-72
2022/01/11 02:11:39;;;;;;;99.57;46.55;;;2.00;99.90;;;;;;2104960;28;20475;-72
2022/01/11 02:12:40;;;;;;;98.63;46.70;;;2.00;99.90;;;;;;2105584;28;20035;-73
2022/01/11 02:13:41;;;;;;;96.43;45.75;;;2.00;99.90;;;;;;2113677;28;20076;-74
2022/01/11 02:14:46;;;;;;;99.65;47.50;;;2.00;99.90;;;;;;2106146;28;20109;-72
2022/01/11 02:15:47;;;;;;;101.80;46.95;;;2.00;99.90;;;;;;2113754;28;20031;-72
2022/01/11 02:16:47;;;;;;;102.35;47.65;;;2.00;99.90;;;;;;2113603;28;20106;-72
2022/01/11 02:17:48;;;;;;;95.93;45.72;;;2.00;99.90;;;;;;2113616;28;20100;-72
2022/01/11 02:18:51;;;;;;;101.40;46.50;;;2.00;99.90;;;;;;2104894;28;20057;-72
2022/01/11 02:19:55;;;;;;;101.30;47.65;;;2.00;99.90;;;;;;2105084;28;20554;-72
2022/01/11 02:20:58;;;;;;;103.70;46.65;;;2.00;99.90;;;;;;2112159;28;20053;-72
2022/01/11 02:22:05;;;;;;;100.53;46.85;;;2.00;99.90;;;;;;2113327;28;20020;-72
2022/01/11 02:23:07;;;;;;;103.25;47.97;;;1.90;99.90;;;;;;2113247;28;20016;-72
2022/01/11 02:24:08;;;;;;;103.18;46.88;;;2.00;99.90;;;;;;2105512;28;20074;-72
2022/01/11 02:25:11;;;;;;;105.32;48.22;;;1.90;99.90;;;;;;2105263;28;20070;-72
2022/01/11 02:26:11;;;;;;;98.50;46.00;;;1.90;99.90;;;;;;2113528;28;20072;-72
2022/01/11 02:27:15;;;;;;;103.13;48.35;;;1.90;99.90;;;;;;2105373;28;20034;-73
2022/01/11 02:28:20;;;;;;;99.13;46.65;;;1.90;99.90;;;;;;2105263;28;20473;-72
2022/01/11 02:29:22;;;;;;;98.60;46.60;;;1.90;99.90;;;;;;2112921;28;20031;-72
2022/01/11 02:30:23;;;;;;;101.80;46.08;;;1.90;99.90;;;;;;2113517;28;20051;-72
2022/01/11 02:31:24;;;;;;;97.95;47.45;;;1.90;99.90;;;;;;2104716;28;20143;-72
2022/01/11 02:32:28;;;;;;;107.28;49.50;;;1.90;99.90;;;;;;2097308;28;20013;-72
2022/01/11 02:33:38;;;;;;;105.85;49.35;;;1.90;99.90;;;;;;2100509;28;20024;-73
2022/01/11 02:34:57;;;;;;;107.30;49.17;;;1.90;99.90;;;;;;2116101;28;20028;-73
2022/01/11 02:36:02;;;;;;;104.88;47.97;;;1.90;99.90;;;;;;2107062;28;20562;-73
2022/01/11 02:37:04;;;;;;;108.75;49.20;;;1.90;99.90;;;;;;2099259;28;20021;-72
2022/01/11 02:38:10;;;;;;;104.55;48.90;;;1.80;99.90;;;;;;2107743;28;20024;-72
2022/01/11 02:39:11;;;;;;;105.78;49.90;;;1.80;99.90;;;;;;2104831;28;20104;-73
2022/01/11 02:40:13;;;;;;;104.63;49.75;;;1.80;99.90;;;;;;2105336;28;20426;-72
2022/01/11 02:41:14;;;;;;;107.13;48.80;;;1.90;99.90;;;;;;2105353;28;20164;-73
2022/01/11 02:42:15;;;;;;;105.88;49.55;;;1.90;99.90;;;;;;2113389;28;20031;-71
2022/01/11 02:43:18;;;;;;;109.38;51.22;;;1.90;99.90;;;;;;2105093;28;20043;-71
2022/01/11 02:44:18;;;;;;;110.03;50.55;;;1.90;99.90;;;;;;2113597;28;20114;-72
2022/01/11 02:45:21;;;;;;;113.05;52.17;;;1.90;99.90;;;;;;2104777;28;20035;-72
2022/01/11 02:46:24;;;;;;;113.05;51.42;;;1.90;99.90;;;;;;2099815;28;20024;-72
2022/01/11 02:47:27;;;;;;;113.38;52.30;;;1.90;99.90;;;;;;2105036;28;20055;-71
2022/01/11 02:48:30;;;;;;;115.80;52.25;;;1.90;99.90;;;;;;2096964;28;20040;-71
2022/01/11 02:49:31;;;;;;;121.72;54.45;;;1.90;99.90;;;;;;2104937;28;20024;-72
2022/01/11 02:50:39;;;;;;;115.07;52.05;;;1.90;99.90;;;;;;2113608;28;20036;-71
2022/01/11 02:51:40;;;;;;;113.82;52.03;;;1.90;99.90;;;;;;2096100;28;20506;-71
2022/01/11 02:52:41;;;;;;;120.57;54.58;;;1.80;99.90;;;;;;2093822;28;20012;-72
2022/01/11 02:53:43;;;;;;;117.35;54.38;;;1.80;99.90;;;;;;2104799;28;20368;-73
2022/01/11 02:54:45;;;;;;;117.43;54.45;;;1.80;99.90;;;;;;2102753;28;20016;-73
2022/01/11 02:55:51;;;;;;;120.80;54.03;;;1.80;99.90;;;;;;2104850;28;20012;-73
2022/01/11 02:56:52;;;;;;;121.10;55.20;;;1.80;99.90;;;;;;2097468;28;20120;-73
2022/01/11 02:57:54;;;;;;;124.95;55.92;;;1.80;99.90;;;;;;2113393;28;20019;-72
2022/01/11 02:59:02;;;;;;;120.15;54.08;;;1.80;99.90;;;;;;2113073;28;20383;-73
2022/01/11 03:00:10;;;;;;;126.40;55.47;;;1.80;99.90;;;;;;2096630;28;20022;-72
2022/01/11 03:01:11;;;;;;;116.38;53.30;;;1.70;99.90;;;;;;2098186;28;20519;-73
2022/01/11 03:02:12;;;;;;;120.78;55.33;;;1.70;99.90;;;;;;2104715;28;20032;-73
2022/01/11 03:03:22;;;;;;;128.32;56.30;;;1.70;99.90;;;;;;2113098;28;20035;-73
2022/01/11 03:04:28;;;;;;;122.50;55.20;;;1.60;99.90;;;;;;2104941;28;20165;-72
2022/01/11 03:05:29;;;;;;;120.38;54.80;;;1.60;99.90;;;;;;2097099;28;20477;-72
2022/01/11 03:06:33;;;;;;;120.30;54.20;;;1.60;99.90;;;;;;2097245;28;20032;-72
2022/01/11 03:07:34;;;;;;;118.25;54.03;;;1.60;99.90;;;;;;2113185;28;20102;-72
2022/01/11 03:08:39;;;;;;;114.00;53.33;;;1.60;99.90;;;;;;2112705;28;20020;-72
2022/01/11 03:10:03;;;;;;;113.50;52.08;;;1.60;99.90;;;;;;2113734;27;20111;-72
2022/01/11 03:11:11;;;;;;;120.53;53.90;;;1.60;99.90;;;;;;2105785;28;20020;-72
2022/01/11 03:12:12;;;;;;;115.28;52.30;;;1.50;99.90;;;;;;2104880;28;20040;-73
2022/01/11 03:13:14;;;;;;;113.75;53.03;;;1.60;99.90;;;;;;2113363;28;20023;-72
2022/01/11 03:14:15;;;;;;;117.03;54.40;;;1.50;99.90;;;;;;2113502;28;20553;-72
2022/01/11 03:15:16;;;;;;;121.30;55.08;;;1.50;99.90;;;;;;2105107;28;20502;-72
2022/01/11 03:16:20;;;;;;;118.63;54.65;;;1.50;99.90;;;;;;2096863;28;20123;-72
2022/01/11 03:17:21;;;;;;;118.85;54.60;;;1.50;99.90;;;;;;2099575;28;20029;-72
2022/01/11 03:18:22;;;;;;;116.72;54.05;;;1.50;99.90;;;;;;2105216;28;20028;-72
2022/01/11 03:19:22;;;;;;;120.97;55.30;;;1.50;99.90;;;;;;2104977;28;20035;-72
2022/01/11 03:20:23;;;;;;;123.60;55.80;;;1.60;99.90;;;;;;2105060;28;20032;-72
2022/01/11 03:21:26;;;;;;;122.45;56.35;;;1.60;99.90;;;;;;2096699;28;20392;-72
2022/01/11 03:22:27;;;;;;;128.27;57.33;;;1.60;99.90;;;;;;2113857;27;20023;-72
2022/01/11 03:23:28;;;;;;;126.82;57.30;;;1.60;99.90;;;;;;2114046;28;20032;-72
2022/01/11 03:24:29;;;;;;;123.90;57.45;;;1.60;99.90;;;;;;2113409;28;20101;-72
2022/01/11 03:25:34;;;;;;;127.60;59.13;;;1.50;99.90;;;;;;2105184;28;20035;-72
2022/01/11 03:26:34;;;;;;;131.80;59.20;;;1.50;99.90;;;;;;2105727;28;20035;-71
2022/01/11 03:27:35;;;;;;;127.13;58.50;;;1.50;99.90;;;;;;2105407;28;20683;-71
2022/01/11 03:28:37;;;;;;;135.00;59.85;;;1.50;99.90;;;;;;2104837;28;20031;-71
2022/01/11 03:29:39;;;;;;;128.38;59.15;;;1.50;99.90;;;;;;2104719;28;20115;-72
2022/01/11 03:30:40;;;;;;;135.40;59.22;;;1.50;99.90;;;;;;2113393;27;20024;-71
2022/01/11 03:31:42;;;;;;;130.82;57.95;;;1.50;99.90;;;;;;2112932;28;20094;-71
2022/01/11 03:32:43;;;;;;;122.07;56.97;;;1.50;99.90;;;;;;2113111;28;20034;-71
2022/01/11 03:33:50;;;;;;;129.60;59.17;;;1.60;99.90;;;;;;2105574;28;20376;-72
2022/01/11 03:34:51;;;;;;;136.35;61.08;;;1.60;99.90;;;;;;2104580;28;20020;-72
2022/01/11 03:35:52;;;;;;;136.00;60.15;;;1.60;99.90;;;;;;2104802;28;20016;-72
2022/01/11 03:36:53;;;;;;;137.82;61.90;;;1.60;99.90;;;;;;2096386;28;20484;-71
2022/01/11 03:37:55;;;;;;;135.93;60.70;;;1.60;99.90;;;;;;2113424;28;20108;-72
2022/01/11 03:38:56;;;;;;;138.68;60.47;;;1.60;99.90;;;;;;2112758;28;20041;-72
2022/01/11 03:39:57;;;;;;;131.82;59.50;;;1.60;99.90;;;;;;2113274;28;20024;-72
2022/01/11 03:40:58;;;;;;;134.23;60.10;;;1.60;99.90;;;;;;2104779;28;20032;-71
2022/01/11 03:41:59;;;;;;;128.23;58.38;;;1.60;99.90;;;;;;2104620;28;20034;-71
2022/01/11 03:43:00;;;;;;;128.80;58.60;;;1.50;99.90;;;;;;2112774;28;20035;-72
2022/01/11 03:44:00;;;;;;;126.78;57.85;;;1.60;99.90;;;;;;2104896;28;20505;-72
2022/01/11 03:45:02;;;;;;;130.90;59.80;;;1.60;99.90;;;;;;2104718;28;20149;-72
2022/01/11 03:46:04;;;;;;;128.45;59.58;;;1.50;99.90;;;;;;2105072;28;20031;-72
2022/01/11 03:47:05;;;;;;;133.38;59.83;;;1.50;99.90;;;;;;2113445;28;20019;-72
2022/01/11 03:48:07;;;;;;;136.10;60.90;;;1.60;99.90;;;;;;2113335;28;20692;-71
2022/01/11 03:49:09;;;;;;;144.00;63.78;;;1.50;99.90;;;;;;2104850;28;20579;-72
2022/01/11 03:50:11;;;;;;;138.65;61.50;;;1.50;99.90;;;;;;2104787;28;20028;-71
2022/01/11 03:51:12;;;;;;;136.75;59.85;;;1.50;99.90;;;;;;2104780;28;20020;-71
2022/01/11 03:52:20;;;;;;;131.02;58.83;;;1.50;99.90;;;;;;2114109;28;20022;-71
2022/01/11 03:53:26;;;;;;;139.25;60.67;;;1.50;99.90;;;;;;2104571;28;20039;-72
2022/01/11 03:54:42;;;;;;;135.70;59.38;;;1.50;99.90;;;;;;2106618;27;20031;-72
2022/01/11 03:57:00;;;;;;;142.60;60.08;;;1.60;99.90;;;;;;2113230;28;20027;-73
2022/01/11 03:58:05;;;;;;;130.43;58.00;;;1.60;99.90;;;;;;2105200;28;20020;-73
2022/01/11 03:59:08;;;;;;;135.52;59.10;;;1.60;99.90;;;;;;2112819;28;20027;-72
2022/01/11 04:00:14;;;;;;;135.48;60.03;;;1.60;99.90;;;;;;2113013;28;20073;-71
2022/01/11 04:01:17;;;;;;;141.32;62.47;;;1.60;99.90;;;;;;2112886;28;20058;-72
2022/01/11 04:02:18;;;;;;;153.95;65.70;;;1.50;99.90;;;;;;2104499;28;20105;-72
2022/01/11 04:03:20;;;;;;;155.13;68.55;;;1.50;99.90;;;;;;2104748;28;20075;-72
2022/01/11 04:04:22;;;;;;;149.20;65.28;;;1.50;99.90;;;;;;2104807;28;20036;-72
2022/01/11 04:05:23;;;;;;;151.95;65.70;;;1.40;99.90;;;;;;2104444;28;20060;-72
2022/01/11 04:06:25;;;;;;;147.73;66.18;;;1.40;99.90;;;;;;2104538;28;20075;-72
2022/01/11 04:07:27;;;;;;;146.02;64.32;;;1.40;99.90;;;;;;2096675;28;20089;-72
2022/01/11 04:08:28;;;;;;;143.50;63.58;;;1.40;99.90;;;;;;2104575;28;20028;-72
2022/01/11 04:09:29;;;;;;;152.10;67.25;;;1.40;99.90;;;;;;2103926;28;20059;-72
2022/01/11 04:10:30;;;;;;;148.73;64.95;;;1.40;99.90;;;;;;2104266;28;20075;-73
2022/01/11 04:11:31;;;;;;;146.95;65.05;;;1.40;99.90;;;;;;2104019;28;20028;-72
2022/01/11 04:12:31;;;;;;;154.18;66.65;;;1.40;99.90;;;;;;2113074;28;20065;-72
2022/01/11 04:13:32;;;;;;;161.98;68.63;;;1.40;99.90;;;;;;2121478;27;20030;-73
2022/01/11 04:14:33;;;;;;;154.73;66.95;;;1.30;99.90;;;;;;2113805;28;20055;-72
2022/01/11 04:15:34;;;;;;;153.07;66.68;;;1.40;99.90;;;;;;2113087;28;20031;-71
2022/01/11 04:16:36;;;;;;;158.27;68.53;;;1.40;99.90;;;;;;2104684;28;20043;-72
2022/01/11 04:17:39;;;;;;;160.45;68.30;;;1.30;99.90;;;;;;2113403;28;20023;-72
2022/01/11 04:18:39;;;;;;;159.02;68.35;;;1.30;99.90;;;;;;2112640;28;20051;-72
2022/01/11 04:19:40;;;;;;;161.27;68.35;;;1.30;99.90;;;;;;2104694;28;20076;-72
2022/01/11 04:20:41;;;;;;;155.02;66.18;;;1.30;99.90;;;;;;2104631;28;20023;-72
2022/01/11 04:21:42;;;;;;;155.40;65.50;;;1.30;99.90;;;;;;2104410;28;20028;-72
2022/01/11 04:22:43;;;;;;;151.15;65.20;;;1.30;99.90;;;;;;2105090;28;20676;-72
2022/01/11 04:23:43;;;;;;;158.15;68.47;;;1.30;99.90;;;;;;2105472;28;20032;-72
2022/01/11 04:24:44;;;;;;;158.82;67.32;;;1.30;99.90;;;;;;2104699;28;20036;-72
2022/01/11 04:25:45;;;;;;;157.55;66.75;;;1.20;99.90;;;;;;2113107;28;20122;-72
2022/01/11 04:26:45;;;;;;;153.10;65.53;;;1.20;99.90;;;;;;2104617;28;20487;-72
2022/01/11 04:27:46;;;;;;;151.38;65.45;;;1.20;99.90;;;;;;2096489;28;20025;-73
2022/01/11 04:28:47;;;;;;;148.38;63.65;;;1.20;99.90;;;;;;2104086;28;20135;-73
2022/01/11 04:29:48;;;;;;;147.18;63.92;;;1.20;99.90;;;;;;2113034;28;20027;-73
2022/01/11 04:30:50;;;;;;;152.30;65.53;;;1.20;99.90;;;;;;2112917;28;20023;-71
2022/01/11 04:31:50;;;;;;;149.02;65.07;;;1.20;99.90;;;;;;2112848;28;20035;-72
2022/01/11 04:32:54;;;;;;;158.80;65.82;;;1.20;99.90;;;;;;2113049;28;20135;-72
2022/01/11 04:33:54;;;;;;;152.80;65.32;;;1.20;99.90;;;;;;2113320;28;20096;-71
2022/01/11 04:34:55;;;;;;;144.52;62.60;;;1.20;99.90;;;;;;2112915;28;20047;-71
2022/01/11 04:35:57;;;;;;;144.55;62.47;;;1.10;99.90;;;;;;2113124;28;20030;-71
2022/01/11 04:36:58;;;;;;;144.15;61.33;;;1.20;99.90;;;;;;2104863;28;20506;-72
2022/01/11 04:38:01;;;;;;;154.93;65.07;;;1.20;99.90;;;;;;2105746;28;20023;-72
2022/01/11 04:39:09;;;;;;;146.10;63.45;;;1.20;99.90;;;;;;2112778;28;20046;-72
2022/01/11 04:40:12;;;;;;;151.02;64.43;;;1.20;99.90;;;;;;2113366;28;20837;-72
2022/01/11 04:41:13;;;;;;;158.77;67.93;;;1.20;99.90;;;;;;2104998;28;20028;-71
2022/01/11 04:42:17;;;;;;;161.70;66.90;;;1.20;99.90;;;;;;2096182;28;20111;-71
2022/01/11 04:43:18;;;;;;;152.93;65.95;;;1.20;99.90;;;;;;2096619;28;20527;-71
2022/01/11 04:44:20;;;;;;;148.98;62.72;;;1.20;99.90;;;;;;2096605;28;20055;-72
2022/01/11 04:45:22;;;;;;;155.38;65.65;;;1.10;99.90;;;;;;2104658;28;20031;-72
2022/01/11 04:46:26;;;;;;;143.88;62.50;;;1.10;99.90;;;;;;2104936;28;20028;-71
2022/01/11 04:47:29;;;;;;;145.30;62.30;;;1.20;99.90;;;;;;2113036;28;20423;-72
2022/01/11 04:48:32;;;;;;;150.52;63.42;;;1.20;99.90;;;;;;2113089;28;20077;-72
2022/01/11 04:49:35;;;;;;;150.98;63.40;;;1.20;99.90;;;;;;2104311;28;20449;-71
2022/01/11 04:50:37;;;;;;;159.07;66.35;;;1.20;99.90;;;;;;2096539;28;20483;-72
2022/01/11 04:51:37;;;;;;;151.00;64.10;;;1.20;99.90;;;;;;2103991;28;20032;-72
2022/01/11 04:52:40;;;;;;;154.23;63.67;;;1.20;99.90;;;;;;2112917;28;20557;-71
2022/01/11 04:53:40;;;;;;;146.90;61.45;;;1.10;99.90;;;;;;2113095;28;20037;-72
2022/01/11 04:54:41;;;;;;;147.05;61.13;;;1.10;99.90;;;;;;2113007;28;20024;-71
2022/01/11 04:55:42;;;;;;;145.50;61.33;;;1.10;99.90;;;;;;2114408;28;20131;-71
2022/01/11 04:56:43;;;;;;;155.98;63.53;;;1.10;99.90;;;;;;2106146;28;20507;-72
2022/01/11 04:57:46;;;;;;;165.35;66.78;;;1.10;99.90;;;;;;2106406;28;20031;-71
2022/01/11 04:58:47;;;;;;;170.23;69.63;;;1.10;99.90;;;;;;2122560;27;20069;-71
2022/01/11 04:59:47;;;;;;;161.93;67.15;;;1.10;99.90;;;;;;2114527;28;20102;-71
2022/01/11 05:00:49;;;;;;;159.45;65.90;;;1.00;99.90;;;;;;2106189;28;20031;-71
2022/01/11 05:01:50;;;;;;;160.65;65.97;;;1.10;99.90;;;;;;2114153;28;20016;-71
2022/01/11 05:02:51;;;;;;;156.27;63.70;;;1.10;99.90;;;;;;2105971;28;20533;-71
2022/01/11 05:03:52;;;;;;;160.45;65.82;;;1.10;99.90;;;;;;2114586;28;20028;-72
2022/01/11 05:04:53;;;;;;;153.35;63.03;;;1.10;99.90;;;;;;2114187;28;20053;-72
2022/01/11 05:05:53;;;;;;;164.35;63.97;;;1.10;99.90;;;;;;2114469;28;20463;-73
2022/01/11 05:06:55;;;;;;;158.18;63.92;;;1.10;99.90;;;;;;2114414;28;20027;-72
2022/01/11 05:07:57;;;;;;;163.32;67.40;;;1.10;99.90;;;;;;2106248;28;20032;-72
2022/01/11 05:08:58;;;;;;;162.80;64.57;;;1.10;99.90;;;;;;2105448;28;20080;-73
2022/01/11 05:09:59;;;;;;;158.88;64.25;;;1.10;99.90;;;;;;2115234;28;20522;-73
2022/01/11 05:11:00;;;;;;;156.35;63.72;;;1.10;99.90;;;;;;2115326;28;20510;-72
2022/01/11 05:12:01;;;;;;;160.48;65.85;;;1.10;99.90;;;;;;2107506;28;20024;-73
2022/01/11 05:13:01;;;;;;;159.93;64.65;;;1.10;99.90;;;;;;2114751;28;20073;-73
2022/01/11 05:14:02;;;;;;;167.93;66.95;;;1.10;99.90;;;;;;2115189;28;20023;-73
2022/01/11 05:15:20;;;;;;;162.98;63.67;;;1.10;99.90;;;;;;2114697;28;20023;-73
2022/01/11 05:16:22;;;;;;;162.23;63.97;;;1.10;99.90;;;;;;2097906;28;20025;-72
2022/01/11 05:17:24;;;;;;;163.65;65.00;;;1.10;99.90;;;;;;2106291;28;20020;-73
2022/01/11 05:18:25;;;;;;;164.80;66.13;;;1.10;99.90;;;;;;2106056;28;20027;-73
2022/01/11 05:19:25;;;;;;;168.23;66.22;;;1.10;99.90;;;;;;2097131;28;20156;-72
2022/01/11 05:20:26;;;;;;;163.60;64.47;;;1.10;99.90;;;;;;2097516;28;20028;-71